Rinard, IL (62878)

9:23 PM CST on February 12, 2016 (GMT -0600)
Noblet Range | | Change Station
CLOSE
Current Station
Personal Weather Station
Location: Rinard, IL
Elevation: 499 ft
Nearby Weather Stations

Elev 499 ft 38.57 °N, 88.55 °W | Updated 10 minutes ago

Clear
Clear
25.0 °F
Feels Like 16 °F
N
8.0
Wind Variable Wind from North
Gusts 11.0 mph

Today
High -- | Low -- °F
--% Chance of Precip.
Yesterday
High -- | Low -- °F
Precip. -- in
Pressure 30.43 in
Visibility 10.0 miles
Clouds Clear
Windchill 16 °F
Dew Point 18 °F
Humidity 74%
Rainfall 0.02 in
Snow Depth Not available.
6:48 AM 5:28 PM
Waxing Crescent, 26% visible
METAR KFOA 130315Z AUTO 32011G17KT 10SM CLR M04/M11 A3043 RMK AO2 T10401113
Pressure 30.43 in
Visibility 10.0 miles
Clouds Clear
Windchill 16 °F
Dew Point 18 °F
Humidity 74%
Rainfall 0.02 in
Snow Depth Not available.
6:48 AM 5:28 PM
Waxing Crescent, 26% visible
METAR KFOA 130315Z AUTO 32011G17KT 10SM CLR M04/M11 A3043 RMK AO2 T10401113

10-Day Weather Forecast

Almanac

Astronomy

Feb. 12, 2016 Rise Set
Actual Time
Civil Twilight
Nautical Twilight
Astronomical Twilight
Moon
Length of Visible Light
Length of Day
Tomorrow will be .
, % of the Moon is Illuminated

Today's Extremes

State Highs State Lows

Community

WunderPhotos

Upload Photos

1,892,491 photos uploaded!

WunderBlog® & News

Nearby

Air Quality

  Air Quality AQ Index Pollutant
Not available.

Snow Depth

Station Depth Elevation

Earthquake Activity

City Distance Mag. Time & Date
Minimum magnitude displayed is 2.5.

Coastal Water Temperatures

Place Temperature

Stations

Nearby Weather Stations

Station Location Temp. Windchill Dew Point Humidity Wind Precip. Elev Updated Type
                   

Watches & Warnings

There are currently no watches in effect.